sensor_id;sensor_type;location;lat;lon;timestamp;P1;durP1;ratioP1;P2;durP2;ratioP2
8183;SDS011;4133;48.752;9.088;2024-03-02T00:00:05;4.00;;;2.87;;
8183;SDS011;4133;48.752;9.088;2024-03-02T00:02:42;5.57;;;2.97;;
8183;SDS011;4133;48.752;9.088;2024-03-02T00:05:12;4.93;;;3.17;;
8183;SDS011;4133;48.752;9.088;2024-03-02T00:07:47;3.37;;;2.83;;
8183;SDS011;4133;48.752;9.088;2024-03-02T00:10:19;7.03;;;3.47;;
8183;SDS011;4133;48.752;9.088;2024-03-02T00:12:46;3.77;;;2.70;;
8183;SDS011;4133;48.752;9.088;2024-03-02T00:15:29;3.93;;;2.70;;
8183;SDS011;4133;48.752;9.088;2024-03-02T00:17:59;4.83;;;3.03;;
8183;SDS011;4133;48.752;9.088;2024-03-02T00:20:25;3.83;;;3.00;;
8183;SDS011;4133;48.752;9.088;2024-03-02T00:23:04;6.70;;;3.10;;
8183;SDS011;4133;48.752;9.088;2024-03-02T00:25:43;5.03;;;3.23;;
8183;SDS011;4133;48.752;9.088;2024-03-02T00:28:31;3.93;;;2.57;;
8183;SDS011;4133;48.752;9.088;2024-03-02T00:31:05;4.80;;;2.47;;
8183;SDS011;4133;48.752;9.088;2024-03-02T00:33:38;3.30;;;2.27;;
8183;SDS011;4133;48.752;9.088;2024-03-02T00:36:05;5.30;;;2.93;;
8183;SDS011;4133;48.752;9.088;2024-03-02T00:38:31;3.83;;;2.77;;
8183;SDS011;4133;48.752;9.088;2024-03-02T00:40:58;3.83;;;2.80;;
8183;SDS011;4133;48.752;9.088;2024-03-02T00:43:37;3.90;;;2.53;;
8183;SDS011;4133;48.752;9.088;2024-03-02T00:46:04;4.17;;;2.90;;
8183;SDS011;4133;48.752;9.088;2024-03-02T00:48:30;3.60;;;2.67;;
8183;SDS011;4133;48.752;9.088;2024-03-02T00:50:56;3.40;;;2.60;;
8183;SDS011;4133;48.752;9.088;2024-03-02T00:53:23;4.27;;;2.80;;
8183;SDS011;4133;48.752;9.088;2024-03-02T00:55:49;4.27;;;3.00;;
8183;SDS011;4133;48.752;9.088;2024-03-02T00:58:15;5.20;;;3.00;;
8183;SDS011;4133;48.752;9.088;2024-03-02T01:00:41;3.00;;;2.60;;
8183;SDS011;4133;48.752;9.088;2024-03-02T01:03:07;5.77;;;3.00;;
8183;SDS011;4133;48.752;9.088;2024-03-02T01:05:34;2.97;;;2.50;;
8183;SDS011;4133;48.752;9.088;2024-03-02T01:08:00;3.90;;;2.43;;
8183;SDS011;4133;48.752;9.088;2024-03-02T01:10:26;4.47;;;3.10;;
8183;SDS011;4133;48.752;9.088;2024-03-02T01:12:52;5.00;;;3.10;;
8183;SDS011;4133;48.752;9.088;2024-03-02T01:15:18;4.73;;;3.07;;
8183;SDS011;4133;48.752;9.088;2024-03-02T01:17:44;5.33;;;3.47;;
8183;SDS011;4133;48.752;9.088;2024-03-02T01:20:10;5.93;;;2.73;;
8183;SDS011;4133;48.752;9.088;2024-03-02T01:22:36;5.20;;;3.20;;
8183;SDS011;4133;48.752;9.088;2024-03-02T01:25:03;4.83;;;3.53;;
8183;SDS011;4133;48.752;9.088;2024-03-02T01:27:29;5.87;;;3.00;;
8183;SDS011;4133;48.752;9.088;2024-03-02T01:29:55;5.67;;;3.40;;
8183;SDS011;4133;48.752;9.088;2024-03-02T01:32:21;4.83;;;2.87;;
8183;SDS011;4133;48.752;9.088;2024-03-02T01:34:47;3.83;;;2.67;;
8183;SDS011;4133;48.752;9.088;2024-03-02T01:37:13;5.43;;;3.20;;
8183;SDS011;4133;48.752;9.088;2024-03-02T01:39:39;5.70;;;3.63;;
8183;SDS011;4133;48.752;9.088;2024-03-02T01:42:05;3.93;;;3.27;;
8183;SDS011;4133;48.752;9.088;2024-03-02T01:44:31;5.10;;;2.90;;
8183;SDS011;4133;48.752;9.088;2024-03-02T01:46:57;5.60;;;3.07;;
8183;SDS011;4133;48.752;9.088;2024-03-02T01:49:23;5.03;;;3.27;;
8183;SDS011;4133;48.752;9.088;2024-03-02T01:51:49;7.27;;;3.73;;
8183;SDS011;4133;48.752;9.088;2024-03-02T01:54:15;5.27;;;3.60;;
8183;SDS011;4133;48.752;9.088;2024-03-02T01:56:41;4.60;;;3.40;;
8183;SDS011;4133;48.752;9.088;2024-03-02T01:59:07;5.10;;;3.90;;
8183;SDS011;4133;48.752;9.088;2024-03-02T02:01:33;7.53;;;3.83;;
8183;SDS011;4133;48.752;9.088;2024-03-02T02:03:59;6.53;;;3.73;;
8183;SDS011;4133;48.752;9.088;2024-03-02T02:06:25;5.43;;;3.87;;
8183;SDS011;4133;48.752;9.088;2024-03-02T02:08:51;7.40;;;3.43;;
8183;SDS011;4133;48.752;9.088;2024-03-02T02:11:17;3.53;;;2.73;;
8183;SDS011;4133;48.752;9.088;2024-03-02T02:13:43;5.37;;;2.97;;
8183;SDS011;4133;48.752;9.088;2024-03-02T02:16:09;5.33;;;3.10;;
8183;SDS011;4133;48.752;9.088;2024-03-02T02:18:35;3.40;;;2.70;;
8183;SDS011;4133;48.752;9.088;2024-03-02T02:21:02;3.77;;;3.00;;
8183;SDS011;4133;48.752;9.088;2024-03-02T02:23:28;5.13;;;2.73;;
8183;SDS011;4133;48.752;9.088;2024-03-02T02:25:54;4.33;;;2.63;;
8183;SDS011;4133;48.752;9.088;2024-03-02T02:28:20;5.00;;;2.70;;
8183;SDS011;4133;48.752;9.088;2024-03-02T02:30:46;3.60;;;2.93;;
8183;SDS011;4133;48.752;9.088;2024-03-02T02:33:12;4.10;;;3.10;;
8183;SDS011;4133;48.752;9.088;2024-03-02T02:35:38;4.73;;;3.07;;
8183;SDS011;4133;48.752;9.088;2024-03-02T02:38:04;6.17;;;3.27;;
8183;SDS011;4133;48.752;9.088;2024-03-02T02:40:31;6.70;;;3.60;;
8183;SDS011;4133;48.752;9.088;2024-03-02T02:42:58;5.07;;;3.57;;
8183;SDS011;4133;48.752;9.088;2024-03-02T02:45:26;5.53;;;3.40;;
8183;SDS011;4133;48.752;9.088;2024-03-02T02:47:52;5.57;;;3.77;;
8183;SDS011;4133;48.752;9.088;2024-03-02T02:50:18;9.37;;;3.47;;
8183;SDS011;4133;48.752;9.088;2024-03-02T02:52:44;5.23;;;3.67;;
8183;SDS011;4133;48.752;9.088;2024-03-02T02:55:11;5.93;;;3.50;;
8183;SDS011;4133;48.752;9.088;2024-03-02T02:57:38;5.83;;;3.33;;
8183;SDS011;4133;48.752;9.088;2024-03-02T03:02:39;6.03;;;3.67;;
8183;SDS011;4133;48.752;9.088;2024-03-02T03:05:07;5.47;;;3.53;;
8183;SDS011;4133;48.752;9.088;2024-03-02T03:07:33;6.40;;;3.53;;
8183;SDS011;4133;48.752;9.088;2024-03-02T03:10:01;5.53;;;3.07;;
8183;SDS011;4133;48.752;9.088;2024-03-02T03:12:28;4.07;;;2.80;;
8183;SDS011;4133;48.752;9.088;2024-03-02T03:14:54;5.07;;;3.07;;
8183;SDS011;4133;48.752;9.088;2024-03-02T03:17:23;4.13;;;2.47;;
8183;SDS011;4133;48.752;9.088;2024-03-02T03:19:50;4.33;;;2.80;;
8183;SDS011;4133;48.752;9.088;2024-03-02T03:22:16;4.00;;;2.87;;
8183;SDS011;4133;48.752;9.088;2024-03-02T03:24:42;5.93;;;2.90;;
8183;SDS011;4133;48.752;9.088;2024-03-02T03:27:08;4.80;;;2.80;;
8183;SDS011;4133;48.752;9.088;2024-03-02T03:29:35;4.87;;;2.70;;
8183;SDS011;4133;48.752;9.088;2024-03-02T03:32:01;3.97;;;2.63;;
8183;SDS011;4133;48.752;9.088;2024-03-02T03:34:28;3.67;;;2.40;;
8183;SDS011;4133;48.752;9.088;2024-03-02T03:36:54;4.30;;;2.67;;
8183;SDS011;4133;48.752;9.088;2024-03-02T03:39:20;3.40;;;2.87;;
8183;SDS011;4133;48.752;9.088;2024-03-02T03:41:46;2.80;;;2.47;;
8183;SDS011;4133;48.752;9.088;2024-03-02T03:44:12;3.73;;;2.80;;
8183;SDS011;4133;48.752;9.088;2024-03-02T03:46:38;3.80;;;2.50;;
8183;SDS011;4133;48.752;9.088;2024-03-02T03:49:04;3.90;;;2.60;;
8183;SDS011;4133;48.752;9.088;2024-03-02T03:51:30;3.43;;;2.30;;
8183;SDS011;4133;48.752;9.088;2024-03-02T03:53:56;3.80;;;2.80;;
8183;SDS011;4133;48.752;9.088;2024-03-02T03:56:22;7.03;;;3.80;;
8183;SDS011;4133;48.752;9.088;2024-03-02T03:58:48;5.10;;;2.70;;
8183;SDS011;4133;48.752;9.088;2024-03-02T04:01:14;5.00;;;2.80;;
8183;SDS011;4133;48.752;9.088;2024-03-02T04:03:40;4.87;;;2.37;;
8183;SDS011;4133;48.752;9.088;2024-03-02T04:06:06;4.73;;;3.27;;
8183;SDS011;4133;48.752;9.088;2024-03-02T04:08:32;4.60;;;2.83;;
8183;SDS011;4133;48.752;9.088;2024-03-02T04:10:58;3.37;;;2.47;;
8183;SDS011;4133;48.752;9.088;2024-03-02T04:13:24;4.20;;;2.90;;
8183;SDS011;4133;48.752;9.088;2024-03-02T04:15:50;4.73;;;3.00;;
8183;SDS011;4133;48.752;9.088;2024-03-02T04:18:16;4.30;;;2.63;;
8183;SDS011;4133;48.752;9.088;2024-03-02T04:20:42;4.00;;;3.00;;
8183;SDS011;4133;48.752;9.088;2024-03-02T04:23:08;5.30;;;2.90;;
8183;SDS011;4133;48.752;9.088;2024-03-02T04:25:34;4.80;;;2.80;;
8183;SDS011;4133;48.752;9.088;2024-03-02T04:28:01;4.30;;;2.50;;
8183;SDS011;4133;48.752;9.088;2024-03-02T04:30:27;5.07;;;3.00;;
8183;SDS011;4133;48.752;9.088;2024-03-02T04:32:53;3.83;;;2.67;;
8183;SDS011;4133;48.752;9.088;2024-03-02T04:35:19;4.40;;;2.67;;
8183;SDS011;4133;48.752;9.088;2024-03-02T04:37:45;5.10;;;2.93;;
8183;SDS011;4133;48.752;9.088;2024-03-02T04:40:11;3.10;;;2.80;;
8183;SDS011;4133;48.752;9.088;2024-03-02T04:42:37;6.17;;;2.80;;
8183;SDS011;4133;48.752;9.088;2024-03-02T04:45:03;4.77;;;2.70;;
8183;SDS011;4133;48.752;9.088;2024-03-02T04:47:29;4.97;;;3.07;;
8183;SDS011;4133;48.752;9.088;2024-03-02T04:49:55;2.50;;;2.27;;
8183;SDS011;4133;48.752;9.088;2024-03-02T04:52:21;3.93;;;2.43;;
8183;SDS011;4133;48.752;9.088;2024-03-02T04:54:47;2.67;;;2.20;;
8183;SDS011;4133;48.752;9.088;2024-03-02T04:57:31;4.60;;;3.40;;
8183;SDS011;4133;48.752;9.088;2024-03-02T04:59:57;4.33;;;3.10;;
8183;SDS011;4133;48.752;9.088;2024-03-02T05:02:24;3.97;;;2.47;;
8183;SDS011;4133;48.752;9.088;2024-03-02T05:04:50;5.80;;;3.13;;
8183;SDS011;4133;48.752;9.088;2024-03-02T05:07:16;4.87;;;3.00;;
8183;SDS011;4133;48.752;9.088;2024-03-02T05:09:42;3.17;;;2.67;;
8183;SDS011;4133;48.752;9.088;2024-03-02T05:12:08;2.50;;;2.27;;
8183;SDS011;4133;48.752;9.088;2024-03-02T05:14:43;6.67;;;3.13;;
8183;SDS011;4133;48.752;9.088;2024-03-02T05:17:09;4.97;;;2.77;;
8183;SDS011;4133;48.752;9.088;2024-03-02T05:19:35;4.70;;;2.53;;
8183;SDS011;4133;48.752;9.088;2024-03-02T05:22:01;7.10;;;3.10;;
8183;SDS011;4133;48.752;9.088;2024-03-02T05:24:28;4.13;;;2.50;;
8183;SDS011;4133;48.752;9.088;2024-03-02T05:26:54;4.67;;;2.60;;
8183;SDS011;4133;48.752;9.088;2024-03-02T05:29:20;6.17;;;2.60;;
8183;SDS011;4133;48.752;9.088;2024-03-02T05:31:46;3.53;;;2.30;;
8183;SDS011;4133;48.752;9.088;2024-03-02T05:34:12;4.73;;;2.50;;
8183;SDS011;4133;48.752;9.088;2024-03-02T05:36:38;4.03;;;2.87;;
8183;SDS011;4133;48.752;9.088;2024-03-02T05:39:07;3.97;;;2.60;;
8183;SDS011;4133;48.752;9.088;2024-03-02T05:41:35;5.03;;;2.73;;
8183;SDS011;4133;48.752;9.088;2024-03-02T05:44:01;4.77;;;2.60;;
8183;SDS011;4133;48.752;9.088;2024-03-02T05:46:27;4.77;;;2.57;;
8183;SDS011;4133;48.752;9.088;2024-03-02T05:48:53;7.35;;;4.57;;
8183;SDS011;4133;48.752;9.088;2024-03-02T05:51:19;3.63;;;2.80;;
8183;SDS011;4133;48.752;9.088;2024-03-02T05:53:45;3.33;;;2.53;;
8183;SDS011;4133;48.752;9.088;2024-03-02T05:56:11;2.93;;;2.07;;
8183;SDS011;4133;48.752;9.088;2024-03-02T05:58:37;2.97;;;2.50;;
8183;SDS011;4133;48.752;9.088;2024-03-02T06:01:22;2.83;;;2.27;;
8183;SDS011;4133;48.752;9.088;2024-03-02T06:03:53;3.90;;;2.17;;
8183;SDS011;4133;48.752;9.088;2024-03-02T06:06:19;4.30;;;2.37;;
8183;SDS011;4133;48.752;9.088;2024-03-02T06:08:46;3.00;;;2.30;;
8183;SDS011;4133;48.752;9.088;2024-03-02T06:11:12;4.23;;;2.93;;
8183;SDS011;4133;48.752;9.088;2024-03-02T06:13:38;3.47;;;2.57;;
8183;SDS011;4133;48.752;9.088;2024-03-02T06:16:04;2.97;;;2.40;;
8183;SDS011;4133;48.752;9.088;2024-03-02T06:18:30;3.37;;;2.40;;
8183;SDS011;4133;48.752;9.088;2024-03-02T06:20:56;4.87;;;3.27;;
8183;SDS011;4133;48.752;9.088;2024-03-02T06:23:22;3.47;;;2.57;;
8183;SDS011;4133;48.752;9.088;2024-03-02T06:25:48;4.60;;;2.80;;
8183;SDS011;4133;48.752;9.088;2024-03-02T06:28:14;3.30;;;2.27;;
8183;SDS011;4133;48.752;9.088;2024-03-02T06:30:41;4.47;;;2.63;;
8183;SDS011;4133;48.752;9.088;2024-03-02T06:33:08;2.57;;;2.20;;
8183;SDS011;4133;48.752;9.088;2024-03-02T06:35:34;3.23;;;2.20;;
8183;SDS011;4133;48.752;9.088;2024-03-02T06:38:00;2.47;;;1.93;;
8183;SDS011;4133;48.752;9.088;2024-03-02T06:40:26;4.67;;;2.80;;
8183;SDS011;4133;48.752;9.088;2024-03-02T06:42:52;2.87;;;2.23;;
8183;SDS011;4133;48.752;9.088;2024-03-02T06:45:18;3.50;;;2.47;;
8183;SDS011;4133;48.752;9.088;2024-03-02T06:47:44;4.90;;;2.70;;
8183;SDS011;4133;48.752;9.088;2024-03-02T06:50:10;2.83;;;2.27;;
8183;SDS011;4133;48.752;9.088;2024-03-02T06:52:36;3.37;;;2.40;;
8183;SDS011;4133;48.752;9.088;2024-03-02T06:55:02;3.03;;;2.20;;
8183;SDS011;4133;48.752;9.088;2024-03-02T06:57:29;4.57;;;2.13;;
8183;SDS011;4133;48.752;9.088;2024-03-02T06:59:55;4.73;;;2.43;;
8183;SDS011;4133;48.752;9.088;2024-03-02T07:02:23;3.67;;;2.27;;
8183;SDS011;4133;48.752;9.088;2024-03-02T07:04:52;3.50;;;2.60;;
8183;SDS011;4133;48.752;9.088;2024-03-02T07:07:17;3.13;;;2.17;;
8183;SDS011;4133;48.752;9.088;2024-03-02T07:09:43;3.17;;;2.27;;
8183;SDS011;4133;48.752;9.088;2024-03-02T07:12:09;3.90;;;3.00;;
8183;SDS011;4133;48.752;9.088;2024-03-02T07:14:36;3.63;;;2.93;;
8183;SDS011;4133;48.752;9.088;2024-03-02T07:17:20;3.73;;;2.67;;
8183;SDS011;4133;48.752;9.088;2024-03-02T07:19:46;4.20;;;2.77;;
8183;SDS011;4133;48.752;9.088;2024-03-02T07:22:12;6.77;;;3.03;;
8183;SDS011;4133;48.752;9.088;2024-03-02T07:24:39;3.40;;;2.33;;
8183;SDS011;4133;48.752;9.088;2024-03-02T07:27:05;4.17;;;2.73;;
8183;SDS011;4133;48.752;9.088;2024-03-02T07:29:31;3.60;;;2.63;;
8183;SDS011;4133;48.752;9.088;2024-03-02T07:31:57;3.83;;;2.87;;
8183;SDS011;4133;48.752;9.088;2024-03-02T07:34:24;5.07;;;2.73;;
8183;SDS011;4133;48.752;9.088;2024-03-02T07:36:50;3.57;;;2.63;;
8183;SDS011;4133;48.752;9.088;2024-03-02T07:39:16;3.17;;;2.37;;
8183;SDS011;4133;48.752;9.088;2024-03-02T07:41:42;7.33;;;3.20;;
8183;SDS011;4133;48.752;9.088;2024-03-02T07:44:08;3.10;;;2.63;;
8183;SDS011;4133;48.752;9.088;2024-03-02T07:46:36;3.60;;;2.27;;
8183;SDS011;4133;48.752;9.088;2024-03-02T07:49:02;2.63;;;2.37;;
8183;SDS011;4133;48.752;9.088;2024-03-02T07:51:28;4.13;;;2.90;;
8183;SDS011;4133;48.752;9.088;2024-03-02T07:53:54;3.57;;;2.73;;
8183;SDS011;4133;48.752;9.088;2024-03-02T07:56:20;4.27;;;3.10;;
8183;SDS011;4133;48.752;9.088;2024-03-02T07:58:48;5.00;;;2.90;;
8183;SDS011;4133;48.752;9.088;2024-03-02T08:01:14;4.00;;;2.87;;
8183;SDS011;4133;48.752;9.088;2024-03-02T08:03:40;3.77;;;2.80;;
8183;SDS011;4133;48.752;9.088;2024-03-02T08:06:07;3.13;;;2.13;;
8183;SDS011;4133;48.752;9.088;2024-03-02T08:08:33;3.03;;;2.53;;
8183;SDS011;4133;48.752;9.088;2024-03-02T08:10:59;4.53;;;3.07;;
8183;SDS011;4133;48.752;9.088;2024-03-02T08:13:25;3.00;;;2.67;;
8183;SDS011;4133;48.752;9.088;2024-03-02T08:15:51;4.00;;;2.67;;
8183;SDS011;4133;48.752;9.088;2024-03-02T08:18:17;3.97;;;2.73;;
8183;SDS011;4133;48.752;9.088;2024-03-02T08:20:43;3.07;;;2.73;;
8183;SDS011;4133;48.752;9.088;2024-03-02T08:23:09;6.40;;;2.70;;
8183;SDS011;4133;48.752;9.088;2024-03-02T08:25:35;3.20;;;2.60;;
8183;SDS011;4133;48.752;9.088;2024-03-02T08:28:02;2.87;;;2.10;;
8183;SDS011;4133;48.752;9.088;2024-03-02T08:30:28;4.50;;;2.40;;
8183;SDS011;4133;48.752;9.088;2024-03-02T08:32:54;4.97;;;2.63;;
8183;SDS011;4133;48.752;9.088;2024-03-02T08:35:20;2.83;;;2.23;;
8183;SDS011;4133;48.752;9.088;2024-03-02T08:37:47;3.50;;;2.13;;
8183;SDS011;4133;48.752;9.088;2024-03-02T08:40:13;2.70;;;2.27;;
8183;SDS011;4133;48.752;9.088;2024-03-02T08:42:39;3.73;;;2.80;;
8183;SDS011;4133;48.752;9.088;2024-03-02T08:45:06;3.27;;;2.37;;
8183;SDS011;4133;48.752;9.088;2024-03-02T08:47:32;4.53;;;2.80;;
8183;SDS011;4133;48.752;9.088;2024-03-02T08:49:59;2.70;;;2.07;;
8183;SDS011;4133;48.752;9.088;2024-03-02T08:52:25;3.37;;;2.30;;
8183;SDS011;4133;48.752;9.088;2024-03-02T08:54:51;3.27;;;2.27;;
8183;SDS011;4133;48.752;9.088;2024-03-02T08:57:17;2.80;;;2.17;;
8183;SDS011;4133;48.752;9.088;2024-03-02T08:59:43;3.10;;;2.03;;
8183;SDS011;4133;48.752;9.088;2024-03-02T09:02:09;2.50;;;2.10;;
8183;SDS011;4133;48.752;9.088;2024-03-02T09:04:35;3.20;;;2.10;;
8183;SDS011;4133;48.752;9.088;2024-03-02T09:07:01;2.90;;;2.10;;
8183;SDS011;4133;48.752;9.088;2024-03-02T09:09:27;1.83;;;1.53;;
8183;SDS011;4133;48.752;9.088;2024-03-02T09:11:53;2.70;;;1.70;;
8183;SDS011;4133;48.752;9.088;2024-03-02T09:14:20;2.03;;;1.83;;
8183;SDS011;4133;48.752;9.088;2024-03-02T09:16:46;1.73;;;1.57;;
8183;SDS011;4133;48.752;9.088;2024-03-02T09:19:12;2.57;;;1.70;;
8183;SDS011;4133;48.752;9.088;2024-03-02T09:21:38;1.53;;;1.30;;
8183;SDS011;4133;48.752;9.088;2024-03-02T09:24:04;2.87;;;1.77;;
8183;SDS011;4133;48.752;9.088;2024-03-02T09:26:31;1.57;;;1.47;;
8183;SDS011;4133;48.752;9.088;2024-03-02T09:28:57;1.77;;;1.60;;
8183;SDS011;4133;48.752;9.088;2024-03-02T09:31:23;1.63;;;1.50;;
8183;SDS011;4133;48.752;9.088;2024-03-02T09:33:49;1.50;;;1.40;;
8183;SDS011;4133;48.752;9.088;2024-03-02T09:36:19;2.53;;;1.60;;
8183;SDS011;4133;48.752;9.088;2024-03-02T09:38:45;1.27;;;1.17;;
8183;SDS011;4133;48.752;9.088;2024-03-02T09:41:11;1.67;;;1.50;;
8183;SDS011;4133;48.752;9.088;2024-03-02T09:43:38;1.70;;;1.57;;
8183;SDS011;4133;48.752;9.088;2024-03-02T09:46:05;1.40;;;1.30;;
8183;SDS011;4133;48.752;9.088;2024-03-02T09:48:31;1.87;;;1.40;;
8183;SDS011;4133;48.752;9.088;2024-03-02T09:50:57;1.90;;;1.37;;
8183;SDS011;4133;48.752;9.088;2024-03-02T09:53:23;1.23;;;1.07;;
8183;SDS011;4133;48.752;9.088;2024-03-02T09:55:49;1.40;;;1.30;;
8183;SDS011;4133;48.752;9.088;2024-03-02T09:58:15;1.40;;;1.30;;
8183;SDS011;4133;48.752;9.088;2024-03-02T10:00:41;1.00;;;0.80;;
8183;SDS011;4133;48.752;9.088;2024-03-02T10:03:11;1.17;;;1.10;;
8183;SDS011;4133;48.752;9.088;2024-03-02T10:05:38;1.20;;;1.10;;
8183;SDS011;4133;48.752;9.088;2024-03-02T10:08:04;1.73;;;1.23;;
8183;SDS011;4133;48.752;9.088;2024-03-02T10:13:05;1.13;;;1.00;;
8183;SDS011;4133;48.752;9.088;2024-03-02T10:15:31;0.73;;;0.73;;
8183;SDS011;4133;48.752;9.088;2024-03-02T10:17:57;1.30;;;1.10;;
8183;SDS011;4133;48.752;9.088;2024-03-02T10:20:26;0.73;;;0.73;;
8183;SDS011;4133;48.752;9.088;2024-03-02T10:23:13;0.87;;;0.87;;
8183;SDS011;4133;48.752;9.088;2024-03-02T10:25:39;0.83;;;0.83;;
8183;SDS011;4133;48.752;9.088;2024-03-02T10:28:06;0.70;;;0.70;;
8183;SDS011;4133;48.752;9.088;2024-03-02T10:30:32;0.90;;;0.90;;
8183;SDS011;4133;48.752;9.088;2024-03-02T10:32:58;2.27;;;0.87;;
8183;SDS011;4133;48.752;9.088;2024-03-02T10:35:25;0.68;;;0.68;;
8183;SDS011;4133;48.752;9.088;2024-03-02T10:37:52;2.27;;;0.87;;
8183;SDS011;4133;48.752;9.088;2024-03-02T10:40:20;0.67;;;0.67;;
8183;SDS011;4133;48.752;9.088;2024-03-02T10:42:47;0.60;;;0.60;;
8183;SDS011;4133;48.752;9.088;2024-03-02T10:45:14;0.63;;;0.63;;
8183;SDS011;4133;48.752;9.088;2024-03-02T10:47:41;0.98;;;0.80;;
8183;SDS011;4133;48.752;9.088;2024-03-02T10:50:08;1.03;;;0.77;;
8183;SDS011;4133;48.752;9.088;2024-03-02T10:52:37;0.70;;;0.70;;
8183;SDS011;4133;48.752;9.088;2024-03-02T10:55:04;0.60;;;0.60;;
8183;SDS011;4133;48.752;9.088;2024-03-02T11:00:15;1.10;;;0.80;;
8183;SDS011;4133;48.752;9.088;2024-03-02T11:02:49;1.10;;;1.00;;
8183;SDS011;4133;48.752;9.088;2024-03-02T11:05:17;0.55;;;0.55;;
8183;SDS011;4133;48.752;9.088;2024-03-02T11:07:44;0.70;;;0.70;;
8183;SDS011;4133;48.752;9.088;2024-03-02T11:10:11;0.57;;;0.57;;
8183;SDS011;4133;48.752;9.088;2024-03-02T11:12:48;1.20;;;1.00;;
8183;SDS011;4133;48.752;9.088;2024-03-02T11:15:18;0.60;;;0.60;;
8183;SDS011;4133;48.752;9.088;2024-03-02T11:17:44;0.80;;;0.80;;
8183;SDS011;4133;48.752;9.088;2024-03-02T11:20:11;1.25;;;1.02;;
8183;SDS011;4133;48.752;9.088;2024-03-02T11:22:37;0.85;;;0.85;;
8183;SDS011;4133;48.752;9.088;2024-03-02T11:25:04;1.02;;;0.88;;
8183;SDS011;4133;48.752;9.088;2024-03-02T11:30:54;0.90;;;0.90;;
8183;SDS011;4133;48.752;9.088;2024-03-02T11:33:03;0.77;;;0.73;;
8183;SDS011;4133;48.752;9.088;2024-03-02T11:35:33;1.08;;;0.98;;
8183;SDS011;4133;48.752;9.088;2024-03-02T11:37:58;0.55;;;0.55;;
8183;SDS011;4133;48.752;9.088;2024-03-02T11:40:25;0.70;;;0.70;;
8183;SDS011;4133;48.752;9.088;2024-03-02T11:42:51;0.85;;;0.85;;
8183;SDS011;4133;48.752;9.088;2024-03-02T11:45:24;0.88;;;0.80;;
8183;SDS011;4133;48.752;9.088;2024-03-02T11:47:51;1.50;;;1.08;;
8183;SDS011;4133;48.752;9.088;2024-03-02T11:50:30;1.63;;;0.90;;
8183;SDS011;4133;48.752;9.088;2024-03-02T11:52:56;1.10;;;1.00;;
8183;SDS011;4133;48.752;9.088;2024-03-02T11:55:25;1.73;;;0.85;;
8183;SDS011;4133;48.752;9.088;2024-03-02T11:57:52;0.80;;;0.80;;
8183;SDS011;4133;48.752;9.088;2024-03-02T12:00:18;0.75;;;0.75;;
8183;SDS011;4133;48.752;9.088;2024-03-02T12:02:45;0.70;;;0.70;;
8183;SDS011;4133;48.752;9.088;2024-03-02T12:05:14;1.23;;;1.00;;
8183;SDS011;4133;48.752;9.088;2024-03-02T12:07:40;0.63;;;0.63;;
8183;SDS011;4133;48.752;9.088;2024-03-02T12:10:06;0.82;;;0.80;;
8183;SDS011;4133;48.752;9.088;2024-03-02T12:12:32;2.08;;;0.77;;
8183;SDS011;4133;48.752;9.088;2024-03-02T12:14:59;0.68;;;0.68;;
8183;SDS011;4133;48.752;9.088;2024-03-02T12:17:25;1.05;;;0.75;;
8183;SDS011;4133;48.752;9.088;2024-03-02T12:19:51;2.15;;;0.70;;
8183;SDS011;4133;48.752;9.088;2024-03-02T12:22:18;0.90;;;0.88;;
8183;SDS011;4133;48.752;9.088;2024-03-02T12:24:44;1.05;;;0.70;;
8183;SDS011;4133;48.752;9.088;2024-03-02T12:27:11;0.90;;;0.90;;
8183;SDS011;4133;48.752;9.088;2024-03-02T12:29:37;0.60;;;0.60;;
8183;SDS011;4133;48.752;9.088;2024-03-02T12:32:04;0.80;;;0.80;;
8183;SDS011;4133;48.752;9.088;2024-03-02T12:34:31;0.93;;;0.70;;
8183;SDS011;4133;48.752;9.088;2024-03-02T12:36:57;0.60;;;0.60;;
8183;SDS011;4133;48.752;9.088;2024-03-02T12:39:23;0.73;;;0.50;;
8183;SDS011;4133;48.752;9.088;2024-03-02T12:41:49;1.08;;;0.70;;
8183;SDS011;4133;48.752;9.088;2024-03-02T12:44:16;1.85;;;0.80;;
8183;SDS011;4133;48.752;9.088;2024-03-02T12:46:42;0.70;;;0.70;;
8183;SDS011;4133;48.752;9.088;2024-03-02T12:49:09;0.60;;;0.60;;
8183;SDS011;4133;48.752;9.088;2024-03-02T12:51:38;0.70;;;0.70;;
8183;SDS011;4133;48.752;9.088;2024-03-02T12:54:07;1.15;;;0.80;;
8183;SDS011;4133;48.752;9.088;2024-03-02T12:56:34;1.52;;;0.90;;
8183;SDS011;4133;48.752;9.088;2024-03-02T12:59:03;0.88;;;0.88;;
8183;SDS011;4133;48.752;9.088;2024-03-02T13:01:29;0.65;;;0.65;;
8183;SDS011;4133;48.752;9.088;2024-03-02T13:03:57;0.47;;;0.47;;
8183;SDS011;4133;48.752;9.088;2024-03-02T13:06:24;0.50;;;0.50;;
8183;SDS011;4133;48.752;9.088;2024-03-02T13:08:52;0.70;;;0.70;;
8183;SDS011;4133;48.752;9.088;2024-03-02T13:11:18;0.63;;;0.50;;
8183;SDS011;4133;48.752;9.088;2024-03-02T13:13:44;0.80;;;0.80;;
8183;SDS011;4133;48.752;9.088;2024-03-02T13:16:11;0.82;;;0.82;;
8183;SDS011;4133;48.752;9.088;2024-03-02T13:18:40;0.70;;;0.70;;
8183;SDS011;4133;48.752;9.088;2024-03-02T13:21:07;0.80;;;0.80;;
8183;SDS011;4133;48.752;9.088;2024-03-02T13:23:33;0.82;;;0.52;;
8183;SDS011;4133;48.752;9.088;2024-03-02T13:25:59;0.80;;;0.80;;
8183;SDS011;4133;48.752;9.088;2024-03-02T13:28:25;0.90;;;0.90;;
8183;SDS011;4133;48.752;9.088;2024-03-02T13:30:51;0.90;;;0.80;;
8183;SDS011;4133;48.752;9.088;2024-03-02T13:33:17;0.82;;;0.82;;
8183;SDS011;4133;48.752;9.088;2024-03-02T13:35:47;1.10;;;1.08;;
8183;SDS011;4133;48.752;9.088;2024-03-02T13:38:14;1.05;;;0.98;;
8183;SDS011;4133;48.752;9.088;2024-03-02T13:40:40;0.88;;;0.88;;
8183;SDS011;4133;48.752;9.088;2024-03-02T13:43:06;1.10;;;1.00;;
8183;SDS011;4133;48.752;9.088;2024-03-02T13:45:32;1.02;;;0.98;;
8183;SDS011;4133;48.752;9.088;2024-03-02T13:47:58;0.77;;;0.77;;
8183;SDS011;4133;48.752;9.088;2024-03-02T13:50:27;1.40;;;1.10;;
8183;SDS011;4133;48.752;9.088;2024-03-02T13:52:54;0.77;;;0.77;;
8183;SDS011;4133;48.752;9.088;2024-03-02T13:55:20;1.48;;;0.88;;
8183;SDS011;4133;48.752;9.088;2024-03-02T13:57:46;1.98;;;0.95;;
8183;SDS011;4133;48.752;9.088;2024-03-02T14:00:14;1.50;;;0.98;;
8183;SDS011;4133;48.752;9.088;2024-03-02T14:02:40;0.85;;;0.85;;
8183;SDS011;4133;48.752;9.088;2024-03-02T14:05:06;0.90;;;0.90;;
8183;SDS011;4133;48.752;9.088;2024-03-02T14:07:37;1.20;;;0.93;;
8183;SDS011;4133;48.752;9.088;2024-03-02T14:10:03;0.73;;;0.73;;
8183;SDS011;4133;48.752;9.088;2024-03-02T14:12:29;0.60;;;0.60;;
8183;SDS011;4133;48.752;9.088;2024-03-02T14:14:55;1.30;;;0.80;;
8183;SDS011;4133;48.752;9.088;2024-03-02T14:17:23;0.63;;;0.63;;
8183;SDS011;4133;48.752;9.088;2024-03-02T14:19:49;0.73;;;0.65;;
8183;SDS011;4133;48.752;9.088;2024-03-02T14:22:16;1.38;;;1.00;;
8183;SDS011;4133;48.752;9.088;2024-03-02T14:24:42;0.70;;;0.70;;
8183;SDS011;4133;48.752;9.088;2024-03-02T14:27:09;0.63;;;0.60;;
8183;SDS011;4133;48.752;9.088;2024-03-02T14:29:35;0.50;;;0.50;;
8183;SDS011;4133;48.752;9.088;2024-03-02T14:32:02;1.35;;;0.82;;
8183;SDS011;4133;48.752;9.088;2024-03-02T14:34:29;0.68;;;0.68;;
8183;SDS011;4133;48.752;9.088;2024-03-02T14:36:55;0.90;;;0.90;;
8183;SDS011;4133;48.752;9.088;2024-03-02T14:39:21;0.60;;;0.60;;
8183;SDS011;4133;48.752;9.088;2024-03-02T14:41:47;0.65;;;0.60;;
8183;SDS011;4133;48.752;9.088;2024-03-02T14:44:13;0.68;;;0.68;;
8183;SDS011;4133;48.752;9.088;2024-03-02T14:46:40;0.50;;;0.50;;
8183;SDS011;4133;48.752;9.088;2024-03-02T14:49:06;0.55;;;0.55;;
8183;SDS011;4133;48.752;9.088;2024-03-02T14:51:32;0.40;;;0.40;;
8183;SDS011;4133;48.752;9.088;2024-03-02T14:53:58;0.70;;;0.70;;
8183;SDS011;4133;48.752;9.088;2024-03-02T14:56:24;1.90;;;0.68;;
8183;SDS011;4133;48.752;9.088;2024-03-02T14:58:50;0.55;;;0.55;;
8183;SDS011;4133;48.752;9.088;2024-03-02T15:01:16;0.95;;;0.65;;
8183;SDS011;4133;48.752;9.088;2024-03-02T15:03:42;0.75;;;0.70;;
8183;SDS011;4133;48.752;9.088;2024-03-02T15:06:09;0.75;;;0.60;;
8183;SDS011;4133;48.752;9.088;2024-03-02T15:08:35;1.40;;;1.30;;
8183;SDS011;4133;48.752;9.088;2024-03-02T15:11:01;0.70;;;0.70;;
8183;SDS011;4133;48.752;9.088;2024-03-02T15:13:28;0.55;;;0.55;;
8183;SDS011;4133;48.752;9.088;2024-03-02T15:15:54;0.80;;;0.80;;
8183;SDS011;4133;48.752;9.088;2024-03-02T15:18:20;1.63;;;0.50;;
8183;SDS011;4133;48.752;9.088;2024-03-02T15:20:46;0.47;;;0.47;;
8183;SDS011;4133;48.752;9.088;2024-03-02T15:23:12;0.52;;;0.43;;